Patagonia, Arizona
Current Conditions -  °F | °C
As of 10:54 PM on Friday 24 Oct 2014 (Local Time) from KOLS Reporting Station
Clear Clear  
Wind Chill: 62°   Ceiling: Unl
Heat Index: 62°   Visibility: 10mi
Dew Point: 46°   Wind: 0mph
Humidity: 56%   Direction: NA
Pressure: 30.19"   Gusts: NA
Location:  31.54°N, 110.76°W
Report Text: KOLS 250554Z AUTO 00000KT 10SM CLR 17/08 A3019 RMK AO2 SLP161 T01670078 10283 20161 51007
Loading
Personal Weather Stations






























Interactive Weather Map
Tropical Storm Tracking
New forecast layout! Learn more

10-Day Weather Forecast

Advertisements
Track Severe Weather on mobile